Castella, California
Current Conditions -  °F | °C
As of 4:19 AM on Friday 19 Dec 2014 (Local Time) from KMHS Reporting Station
Light Rain Light Rain  
Wind Chill: 41°   Ceiling: 1300
Heat Index: 41°   Visibility: 8mi
Dew Point: 38°   Wind: 0mph
Humidity: 89%   Direction: NA
Pressure: 30.01"   Gusts: NA
Location:  41.14°N, 122.32°W
Report Text: KMHS 191219Z AUTO 00000KT 8SM -RA BKN013 BKN019 OVC025 05/03 A3001 RMK AO2 P0002 T00500033
Loading
Personal Weather Stations






























Interactive Weather Map New forecast layout! Learn more

10-Day Weather Forecast

Advertisements
Track Severe Weather on mobile